Aérodrome :
LOGIN :

S'inscrire | Disclaimer

   EN    FR    IT 

 










Légende :    VFR   VFR Marginal   IFR   IFR Intensif   IFR Très Intensif
Visi : 
Plafond : 
>= 8 km
>= 3000ft
5 à 8 km
1000 à 3000 ft
1500m à 5 km
500 à 1000 ft
800 à 1500m
200 à 500 ft
< 800m
< 200 ft
Symboles :   Orages  Brouillard  Fortes neiges  Fortes précipitations  Vent > 20 kt
SIGMETs :   Divers  Orages  Givrage  Turbulence  Onde Orograph.  Cendres Volcan.






- Altitude de l'aérodrome : 268 ft
- Code IATA : BFS


EGAA - Belfast Aldergrove

DERNIER METAR :
  • 141820Z 25011KT 4000 -RADZ FEW007 SCT011 BKN022 13/12 Q1015

METARs EXPIRÉS :
  • 141750Z 25012KT 9999 SCT005 BKN009 13/12 Q1015 REDZ
  • 141720Z 25010KT 9000 -RA SCT007 BKN011 13/12 Q1015
  • 141650Z 24012KT 8000 -RA SCT008 BKN015 BKN025 13/12 Q1015
  • 141620Z 25010KT 9000 SCT009 BKN014 13/12 Q1016
  • 141550Z 26010KT 7000 FEW004 SCT014 BKN026 13/12 Q1016 RERA
  • 141520Z 25011KT 3000 RADZ BKN004 BKN010 13/13 Q1016

TAF AMD TAF EGAA
Valide du 14 à 18h jusqu'au 15 à 18h UTC


141757Z 1418/1518 27009KT 9999 SCT007 BKN012
TEMPO 1418/1510 7000 RA -RADZ BKN007
PROB40
TEMPO 1418/1510 4000 RADZ
PROB40
TEMPO 1423/1509 BKN004
PROB40 1510/1517 FEW016 SCT025
PROB30
TEMPO 1517/1518 7000 -RADZ



MET'MAP, la Météo Aéronautique d'un coup d'oeil ! - Copyright ORBIFLY Décembre 2007 - Disclaimer

ORBIFLY MET'MAP TEAM :

Programmation & Développement : Alexandra Zaïnal
Sur une idée originale de : Baudouin d'Aumeries
Assistance à la programmation : Marc-Olivier Méhu
Soutien technique & logistique : Manuel Goepfert

Contact : metmap@orbifly.com




SOURCES & CREDITS :

   NOAA